Time;durP1;ratioP1;P1;durP2;ratioP2;P2;SDS_P1;SDS_P2;PMS_P1;PMS_P2;Temp;Humidity;BMP_temperature;BMP_pressure;BME280_temperature;BME280_humidity;BME280_pressure;Samples;Min_cycle;Max_cycle;Signal;HPM_P1;HPM_P2
2023/06/01 00:01:21;;;;;;;19.27;10.35;;;15.90;99.90;;;15.16;100.00;101329.16;4152582;28;20029;-78
2023/06/01 00:03:23;;;;;;;16.42;9.25;;;15.90;99.90;;;15.22;100.00;101339.94;4159210;28;20489;-79
2023/06/01 00:05:23;;;;;;;16.45;9.82;;;15.80;99.90;;;15.11;100.00;101329.69;4168350;28;20030;-79
2023/06/01 00:07:24;;;;;;;14.05;10.57;;;15.80;99.90;;;15.15;100.00;101341.59;4170101;28;20025;-78
2023/06/01 00:09:25;;;;;;;16.88;10.35;;;15.80;99.90;;;15.07;100.00;101331.00;4168875;28;20060;-79
2023/06/01 00:11:26;;;;;;;25.17;11.10;;;15.70;99.90;;;15.13;100.00;101330.31;4170011;28;20484;-79
2023/06/01 00:13:27;;;;;;;15.30;9.98;;;15.70;99.90;;;15.11;100.00;101334.16;4164145;28;20109;-79
2023/06/01 00:15:28;;;;;;;16.27;9.77;;;15.70;99.90;;;15.04;100.00;101328.69;4165999;28;20430;-79
2023/06/01 00:17:30;;;;;;;14.98;9.95;;;15.70;99.90;;;14.97;100.00;101325.03;4154419;28;20061;-79
2023/06/01 00:20:23;;;;;;;;;;;;;;;;;;;;;
2023/06/01 00:22:50;;;;;;;17.35;10.13;;;15.60;99.90;;;14.99;100.00;101344.31;4158518;28;20427;-79
2023/06/01 00:25:25;;;;;;;;;;;;;;;;;;;;;
2023/06/01 00:27:25;;;;;;;15.93;9.63;;;15.60;99.90;;;14.82;100.00;101321.44;4145179;28;20417;-79
2023/06/01 00:29:41;;;;;;;;;;;;;;;;;;;;;
2023/06/01 00:31:44;;;;;;;14.60;8.88;;;15.50;99.90;;;14.66;100.00;101305.53;4152184;28;20034;-78
2023/06/01 00:33:50;;;;;;;14.03;9.37;;;15.40;99.90;;;14.69;100.00;101315.84;4149694;28;20022;-79
2023/06/01 00:36:15;;;;;;;;;;;;;;;;;;;;;
2023/06/01 00:38:44;;;;;;;18.05;10.32;;;15.30;99.90;;;14.64;100.00;101328.75;4168762;28;20040;-79
2023/06/01 00:41:00;;;;;;;;;;;;;;;;;;;;;
2023/06/01 00:43:15;;;;;;;18.25;10.00;;;15.30;99.90;;;14.57;100.00;101315.34;4167486;28;20033;-79
2023/06/01 00:45:22;;;;;;;13.32;8.38;;;15.30;99.90;;;14.59;100.00;101323.13;4155876;28;20147;-79
2023/06/01 00:47:36;;;;;;;20.83;8.93;;;15.20;99.90;;;14.44;100.00;101316.84;4185105;28;20036;-79
2023/06/01 00:49:43;;;;;;;22.35;10.13;;;15.20;99.90;;;14.47;100.00;101322.66;4153141;28;20034;-79
2023/06/01 00:52:03;;;;;;;16.20;10.48;;;15.10;99.90;;;14.38;100.00;101313.88;4168271;28;20033;-79
2023/06/01 00:54:08;;;;;;;11.40;9.20;;;15.10;99.90;;;14.42;100.00;101314.38;4167478;28;20025;-79
2023/06/01 00:56:12;;;;;;;;;;;15.10;99.90;;;14.28;100.00;101304.38;4167457;28;20033;-79
2023/06/01 00:58:42;;;;;;;;;;;;;;;;;;;;;
2023/06/01 01:00:53;;;;;;;18.20;9.93;;;15.10;99.90;;;14.31;100.00;101309.34;4152836;28;20034;-79
2023/06/01 01:03:07;;;;;;;20.90;10.73;;;15.00;99.90;;;14.32;100.00;101314.53;4153528;28;20076;-79
2023/06/01 01:05:19;;;;;;;16.67;8.95;;;15.00;99.90;;;14.22;100.00;101295.25;4152712;28;20485;-79
2023/06/01 01:07:51;;;;;;;15.10;8.80;;;15.00;99.90;;;14.31;100.00;101325.25;4164655;28;20029;-79
2023/06/01 01:10:52;;;;;;;19.33;9.07;;;15.00;99.90;;;14.12;100.00;101297.25;4184408;28;20031;-79
2023/06/01 01:13:18;;;;;;;;;;;;;;;;;;;;;
2023/06/01 01:15:46;;;;;;;16.23;9.68;;;14.90;99.90;;;14.32;100.00;101345.50;4163323;28;20057;-79
2023/06/01 01:18:02;;;;;;;15.25;8.80;;;14.90;99.90;;;14.05;100.00;101298.91;4141090;28;20033;-79
2023/06/01 01:20:15;;;;;;;16.85;8.75;;;14.80;99.90;;;14.19;100.00;101322.13;4184461;28;20519;-79
2023/06/01 01:23:08;;;;;;;17.55;9.60;;;14.80;99.90;;;14.12;100.00;101320.31;4148497;28;20116;-79
2023/06/01 01:25:58;;;;;;;16.50;9.50;;;14.80;99.90;;;14.04;100.00;101310.50;4148781;28;20112;-79
2023/06/01 01:28:30;;;;;;;18.08;8.98;;;14.70;99.90;;;14.17;100.00;101326.78;4167842;28;20037;-79
2023/06/01 01:30:50;;;;;;;19.85;9.80;;;14.70;99.90;;;13.93;100.00;101283.47;4168776;28;20500;-78
2023/06/01 01:33:03;;;;;;;16.85;9.60;;;14.60;99.90;;;13.95;100.00;101294.75;4153024;28;20026;-79
2023/06/01 01:35:19;;;;;;;18.42;9.20;;;14.60;99.90;;;13.85;100.00;101284.31;4163466;28;20507;-79
2023/06/01 01:37:56;;;;;;;18.27;9.50;;;14.60;99.90;;;13.97;100.00;101309.50;4135915;28;20061;-79
2023/06/01 01:40:07;;;;;;;14.40;9.23;;;14.60;99.90;;;13.98;100.00;101313.81;4136962;28;20027;-79
2023/06/01 01:42:20;;;;;;;14.05;9.30;;;14.60;99.90;;;14.04;100.00;101326.41;4135175;28;20104;-79
2023/06/01 01:44:36;;;;;;;;;;;;;;;;;;;;;
2023/06/01 01:47:06;;;;;;;18.63;10.15;;;14.60;99.90;;;14.02;100.00;101327.56;4167746;28;20092;-79
2023/06/01 01:49:56;;;;;;;18.50;10.68;;;14.50;99.90;;;13.89;100.00;101304.19;4169622;28;20072;-79
2023/06/01 01:52:29;;;;;;;23.92;10.05;;;14.50;99.90;;;13.98;100.00;101323.63;4154821;28;20057;-79
2023/06/01 01:54:45;;;;;;;19.15;10.15;;;14.50;99.90;;;13.81;100.00;101297.06;4154260;28;20129;-79
2023/06/01 01:56:53;;;;;;;15.88;9.43;;;14.60;99.90;;;13.98;100.00;101328.91;4150925;28;20037;-79
2023/06/01 01:59:07;;;;;;;;;;;;;;;;;;;;;
2023/06/01 02:01:17;;;;;;;16.73;9.48;;;14.50;99.90;;;13.89;100.00;101322.75;4152820;28;20032;-79
2023/06/01 02:03:21;;;;;;;16.60;9.82;;;14.50;99.90;;;13.75;100.00;101295.06;4154331;28;20030;-79
2023/06/01 02:05:25;;;;;;;21.45;10.15;;;14.50;99.90;;;13.78;100.00;101300.03;4152200;28;20026;-79
2023/06/01 02:07:36;;;;;;;20.60;10.52;;;14.50;99.90;;;13.81;100.00;101304.16;4151989;28;20440;-79
2023/06/01 02:09:50;;;;;;;;;;;;;;;;;;;;;
2023/06/01 02:11:52;;;;;;;16.55;9.15;;;14.50;99.90;;;13.77;100.00;101305.47;4154353;28;20034;-79
2023/06/01 02:13:53;;;;;;;17.35;10.10;;;14.50;99.90;;;13.74;100.00;101295.19;4161892;28;20029;-79
2023/06/01 02:16:16;;;;;;;19.42;9.95;;;14.50;99.90;;;13.74;100.00;101311.09;4170400;28;20116;-79
2023/06/01 02:18:58;;;;;;;;;;;;;;;;;;;;;
2023/06/01 02:21:08;;;;;;;16.13;9.23;;;14.40;99.90;;;13.62;100.00;101289.38;4170863;28;20029;-79
2023/06/01 02:23:32;;;;;;;20.40;10.23;;;14.30;99.90;;;13.60;100.00;101274.63;4150466;28;20030;-79
2023/06/01 02:25:53;;;;;;;;;;;;;;;;;;;;;
2023/06/01 02:28:07;;;;;;;23.02;10.75;;;14.30;99.90;;;13.54;100.00;101270.81;4154420;28;20237;-79
2023/06/01 02:30:31;;;;;;;20.67;11.35;;;14.30;99.90;;;13.61;100.00;101286.91;4154131;28;20038;-79
2023/06/01 02:32:32;;;;;;;26.70;10.27;;;14.30;99.90;;;13.56;100.00;101279.41;4154443;28;20033;-79
2023/06/01 02:34:33;;;;;;;17.67;9.30;;;14.30;99.90;;;13.52;100.00;101285.22;4150227;28;20057;-79
2023/06/01 02:36:42;;;;;;;23.95;11.63;;;14.30;99.90;;;13.49;100.00;101269.66;4182650;28;20063;-79
2023/06/01 02:38:48;;;;;;;24.17;10.38;;;14.30;99.90;;;13.53;100.00;101273.63;4141017;28;20528;-79
2023/06/01 02:40:54;;;;;;;20.00;10.48;;;14.20;99.90;;;13.49;100.00;101280.25;4186331;28;20476;-79
2023/06/01 02:43:00;;;;;;;25.38;11.98;;;14.20;99.90;;;13.44;100.00;101274.59;4170470;28;20043;-79
2023/06/01 02:45:11;;;;;;;19.27;9.85;;;14.20;99.90;;;13.45;100.00;101270.94;4153870;28;20159;-79
2023/06/01 02:47:17;;;;;;;18.92;9.90;;;14.20;99.90;;;13.44;100.00;101269.31;4186387;28;20040;-79
2023/06/01 02:49:28;;;;;;;16.23;9.82;;;14.20;99.90;;;13.50;100.00;101289.88;4170359;28;20034;-79
2023/06/01 02:51:45;;;;;;;20.77;9.50;;;14.10;99.90;;;13.38;100.00;101278.72;4154625;28;20030;-79
2023/06/01 02:53:48;;;;;;;19.95;9.88;;;14.10;99.90;;;13.35;100.00;101279.03;4164098;28;20030;-79
2023/06/01 02:55:52;;;;;;;21.23;10.77;;;14.10;99.90;;;13.28;100.00;101270.91;4154819;28;20026;-80
2023/06/01 02:58:16;;;;;;;20.53;11.07;;;14.00;99.90;;;13.32;100.00;101280.19;4137373;28;20034;-79
2023/06/01 03:00:20;;;;;;;18.35;10.40;;;14.00;99.90;;;13.29;100.00;101274.38;4154861;28;20269;-79
2023/06/01 03:02:44;;;;;;;24.90;11.27;;;14.00;99.90;;;13.38;100.00;101286.66;4137669;28;20059;-79
2023/06/01 03:04:55;;;;;;;22.95;10.05;;;14.00;99.90;;;13.36;100.00;101288.66;4143112;28;20042;-79
2023/06/01 03:06:58;;;;;;;28.85;10.23;;;14.00;99.90;;;13.34;100.00;101276.56;4146746;28;20049;-79
2023/06/01 03:09:22;;;;;;;;;;;;;;;;;;;;;
2023/06/01 03:11:26;;;;;;;23.13;11.02;;;14.00;99.90;;;13.37;100.00;101294.78;4169726;28;20034;-79
2023/06/01 03:13:30;;;;;;;20.58;10.02;;;14.00;99.90;;;13.17;100.00;101255.28;4169773;28;20030;-79
2023/06/01 03:15:33;;;;;;;19.38;10.25;;;13.90;99.90;;;13.27;100.00;101276.38;4153238;28;20046;-79
2023/06/01 03:17:37;;;;;;;19.58;10.77;;;13.90;99.90;;;13.20;100.00;101268.22;4137179;28;20030;-79
2023/06/01 03:19:43;;;;;;;26.15;12.00;;;13.90;99.90;;;13.22;100.00;101279.50;4153725;28;20499;-79
2023/06/01 03:21:59;;;;;;;24.33;12.00;;;13.90;99.90;;;13.11;100.00;101258.56;4155128;28;20044;-79
2023/06/01 03:24:28;;;;;;;26.10;11.88;;;13.90;99.90;;;13.14;100.00;101271.50;4142572;28;20030;-79
2023/06/01 03:26:31;;;;;;;31.67;11.55;;;13.80;99.90;;;13.21;100.00;101283.13;4170544;28;20025;-79
2023/06/01 03:28:38;;;;;;;21.95;11.48;;;13.80;99.90;;;13.10;100.00;101262.25;4170763;28;20029;-79
2023/06/01 03:30:42;;;;;;;25.85;12.18;;;13.70;99.90;;;13.06;100.00;101260.84;4169406;28;20029;-79
2023/06/01 03:32:49;;;;;;;21.27;10.10;;;13.80;99.90;;;13.05;100.00;101261.84;4169488;28;20053;-79
2023/06/01 03:34:58;;;;;;;26.95;12.02;;;13.80;99.90;;;13.06;100.00;101254.72;4184512;28;20278;-78
2023/06/01 03:37:22;;;;;;;28.45;12.00;;;13.80;99.90;;;13.10;100.00;101259.59;4169308;28;20037;-79
2023/06/01 03:39:33;;;;;;;27.52;10.85;;;13.80;99.90;;;13.01;100.00;101264.97;4156639;28;20152;-79
2023/06/01 03:41:39;;;;;;;27.95;11.88;;;13.80;99.90;;;13.11;100.00;101278.97;4153742;28;20034;-79
2023/06/01 03:43:42;;;;;;;24.02;12.10;;;13.80;99.90;;;12.99;100.00;101259.00;4153246;28;20057;-79
2023/06/01 03:45:43;;;;;;;21.15;11.85;;;13.70;99.90;;;13.10;100.00;101285.25;4169299;28;20052;-79
2023/06/01 03:47:52;;;;;;;29.45;12.27;;;13.70;99.90;;;12.87;100.00;101250.53;4152914;28;20034;-79
2023/06/01 03:49:58;;;;;;;27.67;12.98;;;13.70;99.90;;;13.05;100.00;101274.28;4152854;28;20046;-79
2023/06/01 03:52:04;;;;;;;27.67;13.32;;;13.70;99.90;;;12.95;100.00;101269.09;4153999;28;20517;-79
2023/06/01 03:54:09;;;;;;;23.92;11.85;;;13.70;99.90;;;13.04;100.00;101284.03;4154139;28;20030;-79
2023/06/01 03:56:13;;;;;;;23.48;11.75;;;13.60;99.90;;;12.90;100.00;101255.50;4153519;28;20024;-79
2023/06/01 03:58:20;;;;;;;16.67;11.30;;;13.60;99.90;;;12.89;100.00;101258.28;4152595;28;20030;-79
2023/06/01 04:00:27;;;;;;;24.88;12.48;;;13.70;99.90;;;12.88;100.00;101260.09;4152447;28;20060;-79
2023/06/01 04:02:35;;;;;;;24.95;13.20;;;13.60;99.90;;;13.02;100.00;101272.75;4136314;28;20026;-79
2023/06/01 04:04:45;;;;;;;26.48;13.57;;;13.60;99.90;;;12.87;100.00;101255.00;4137169;28;20023;-79
2023/06/01 04:06:49;;;;;;;23.70;12.52;;;13.70;99.90;;;12.96;100.00;101276.03;4168923;28;20116;-79
2023/06/01 04:09:00;;;;;;;24.77;12.27;;;13.60;99.90;;;12.94;100.00;101270.06;4152567;28;20044;-79
2023/06/01 04:11:09;;;;;;;27.08;11.95;;;13.60;99.90;;;12.81;100.00;101255.63;4152370;28;20121;-79
2023/06/01 04:13:19;;;;;;;25.98;13.13;;;13.60;99.90;;;12.76;100.00;101248.97;4152768;28;20073;-78
2023/06/01 04:15:25;;;;;;;26.38;13.05;;;13.60;99.90;;;12.84;100.00;101272.03;4146878;28;20037;-79
2023/06/01 04:17:34;;;;;;;28.20;14.07;;;13.60;99.90;;;12.72;100.00;101247.59;4152464;28;20026;-79
2023/06/01 04:19:46;;;;;;;30.40;13.70;;;13.50;99.90;;;12.84;100.00;101268.53;4153792;28;20042;-79
2023/06/01 04:21:52;;;;;;;22.38;12.85;;;13.60;99.90;;;12.73;100.00;101261.69;4153405;28;20029;-79
2023/06/01 04:23:56;;;;;;;31.88;13.90;;;13.50;99.90;;;12.75;100.00;101263.19;4150665;28;20038;-79
2023/06/01 04:26:15;;;;;;;;;;;;;;;;;;;;;
2023/06/01 04:31:03;;;;;;;25.92;14.40;;;13.50;99.90;;;12.76;100.00;101278.09;4154486;28;20045;-79
2023/06/01 04:33:17;;;;;;;25.38;12.95;;;13.50;99.90;;;12.90;100.00;101294.38;4153649;28;20030;-79
2023/06/01 04:35:31;;;;;;;25.63;15.10;;;13.50;99.90;;;12.84;100.00;101287.91;4169553;28;20442;-79
2023/06/01 04:37:54;;;;;;;32.58;15.30;;;13.50;99.90;;;12.96;100.00;101310.44;4168474;28;20033;-79
2023/06/01 04:40:16;;;;;;;;;;;;;;;;;;;;;
2023/06/01 04:42:35;;;;;;;26.92;15.32;;;13.50;99.90;;;12.87;100.00;101290.25;4169544;28;20025;-79
2023/06/01 04:44:41;;;;;;;29.23;15.82;;;13.50;99.90;;;12.88;100.00;101293.69;4168428;28;20037;-79
2023/06/01 04:46:53;;;;;;;29.80;16.13;;;13.60;99.90;;;12.85;100.00;101286.91;4168415;28;20032;-79
2023/06/01 04:48:59;;;;;;;30.52;15.52;;;13.60;99.90;;;12.83;100.00;101286.22;4168023;28;20061;-79
2023/06/01 04:51:01;;;;;;;27.88;14.98;;;13.60;99.90;;;12.81;100.00;101280.28;4168872;28;20087;-78
2023/06/01 04:53:27;;;;;;;28.80;14.88;;;13.60;99.90;;;12.89;100.00;101290.06;4167690;28;20037;-78
2023/06/01 04:55:33;;;;;;;26.33;14.27;;;13.60;99.90;;;12.96;100.00;101302.50;4167857;28;20101;-79
2023/06/01 04:58:03;;;;;;;28.13;15.05;;;13.60;99.90;;;12.90;100.00;101287.28;4168402;28;20029;-79
2023/06/01 05:00:13;;;;;;;29.92;16.40;;;13.60;99.90;;;12.95;100.00;101294.72;4151640;28;20030;-79
2023/06/01 05:02:27;;;;;;;31.35;17.15;;;13.70;99.90;;;12.95;100.00;101279.69;4152469;28;20030;-79
2023/06/01 05:04:46;;;;;;;;;;;;;;;;;;;;;
2023/06/01 05:07:01;;;;;;;29.45;16.83;;;13.70;99.90;;;13.05;100.00;101292.81;4160171;28;20034;-79
2023/06/01 05:09:13;;;;;;;29.95;16.17;;;13.70;99.90;;;13.05;100.00;101290.97;4150458;28;20030;-79
2023/06/01 05:11:16;;;;;;;34.00;17.75;;;13.80;99.90;;;12.98;100.00;101274.06;4152457;28;20422;-79
2023/06/01 05:13:20;;;;;;;29.83;16.55;;;13.80;99.90;;;13.05;100.00;101284.88;4167960;28;20471;-79
2023/06/01 05:15:30;;;;;;;26.42;17.05;;;13.80;99.90;;;13.19;100.00;101302.84;4167738;28;20037;-79
2023/06/01 05:17:44;;;;;;;32.50;17.15;;;13.80;99.90;;;13.27;100.00;101319.59;4152110;28;20452;-79
2023/06/01 05:19:48;;;;;;;29.83;18.20;;;13.80;99.90;;;13.16;100.00;101289.91;4152894;28;20050;-79
2023/06/01 05:22:07;;;;;;;;;;;;;;;;;;;;;
2023/06/01 05:24:22;;;;;;;34.83;18.67;;;13.90;99.90;;;13.23;100.00;101299.69;4153651;28;20034;-79
2023/06/01 05:26:26;;;;;;;32.30;17.67;;;14.00;99.90;;;13.22;100.00;101290.09;4151217;28;20101;-79
2023/06/01 05:28:39;;;;;;;;;;;14.00;99.90;;;13.33;100.00;101310.16;4157117;28;20078;-79
2023/06/01 05:30:56;;;;;;;35.35;18.95;;;14.00;99.90;;;13.34;100.00;101311.00;4167789;28;19908;-79
2023/06/01 05:33:16;;;;;;;35.05;17.02;;;14.00;99.90;;;13.48;100.00;101318.34;4168752;28;20033;-79
2023/06/01 05:35:40;;;;;;;;;;;;;;;;;;;;;
2023/06/01 05:37:43;;;;;;;31.33;17.60;;;14.10;99.90;;;13.58;100.00;101327.00;4168071;28;20029;-79
2023/06/01 05:39:47;;;;;;;27.83;16.50;;;14.20;99.90;;;13.47;100.00;101308.75;4151254;28;20113;-79
2023/06/01 05:41:51;;;;;;;34.53;18.15;;;14.20;99.90;;;13.59;100.00;101318.06;4166893;28;20033;-79
2023/06/01 05:44:00;;;;;;;31.88;18.40;;;14.20;99.90;;;13.58;100.00;101313.75;4150974;28;20037;-79
2023/06/01 05:46:07;;;;;;;33.20;18.33;;;14.30;99.90;;;13.68;100.00;101322.38;4183560;28;20041;-79
2023/06/01 05:48:24;;;;;;;29.55;16.85;;;14.30;99.90;;;13.81;100.00;101333.34;4151594;28;20028;-79
2023/06/01 05:50:33;;;;;;;29.75;16.92;;;14.40;99.90;;;13.83;100.00;101341.97;4182720;28;20041;-79
2023/06/01 05:52:47;;;;;;;;;;;;;;;;;;;;;
2023/06/01 05:54:50;;;;;;;29.95;17.00;;;14.50;99.90;;;13.92;100.00;101342.84;4167442;28;20100;-80
2023/06/01 05:56:54;;;;;;;28.10;16.65;;;14.50;99.90;;;13.84;100.00;101320.59;4167147;28;20396;-79
2023/06/01 05:59:19;;;;;;;25.48;16.63;;;14.50;99.90;;;13.84;100.00;101312.63;4167693;28;20026;-80
2023/06/01 06:01:41;;;;;;;30.90;16.70;;;14.60;99.90;;;13.99;100.00;101327.91;4150389;28;20052;-79
2023/06/01 06:03:56;;;;;;;28.77;16.65;;;14.60;99.90;;;14.15;100.00;101346.50;4156555;28;20037;-79
2023/06/01 06:06:00;;;;;;;32.70;18.58;;;14.70;99.90;;;14.25;100.00;101363.91;4162764;28;20030;-80
2023/06/01 06:08:01;;;;;;;33.85;18.40;;;14.70;99.90;;;14.15;100.00;101326.13;4167445;28;20095;-80
2023/06/01 06:10:03;;;;;;;29.17;16.83;;;14.80;99.90;;;14.18;100.00;101327.59;4168499;28;20081;-80
2023/06/01 06:12:05;;;;;;;28.83;15.90;;;14.80;99.90;;;14.43;100.00;101365.59;4159379;28;20117;-80
2023/06/01 06:14:06;;;;;;;32.78;16.67;;;14.90;99.90;;;14.30;100.00;101326.28;4165192;28;20048;-80
2023/06/01 06:16:07;;;;;;;28.67;16.83;;;14.90;99.90;;;14.39;100.00;101335.94;4179203;28;20046;-80
2023/06/01 06:18:08;;;;;;;27.15;17.42;;;15.00;99.90;;;14.48;100.00;101347.38;4150917;28;20034;-80
2023/06/01 06:20:10;;;;;;;32.83;17.92;;;15.00;99.90;;;14.49;100.00;101325.13;4134834;28;20026;-79
2023/06/01 06:22:11;;;;;;;28.65;17.33;;;15.00;99.90;;;14.54;100.00;101328.13;4166599;28;20038;-79
2023/06/01 06:24:12;;;;;;;30.05;17.23;;;15.10;99.90;;;14.73;100.00;101343.69;4168469;28;20029;-80
2023/06/01 06:26:13;;;;;;;29.27;17.50;;;15.20;99.90;;;14.86;100.00;101333.38;4166936;28;20030;-79
2023/06/01 06:28:15;;;;;;;25.88;16.27;;;15.20;99.90;;;14.81;100.00;101307.31;4167206;28;20030;-79
2023/06/01 06:30:16;;;;;;;30.38;17.88;;;15.30;99.90;;;14.95;100.00;101325.22;4168211;28;20030;-80
2023/06/01 06:32:19;;;;;;;21.00;15.30;;;15.40;99.90;;;14.88;100.00;101315.44;4157790;28;20165;-79
2023/06/01 06:34:20;;;;;;;25.65;16.65;;;15.40;99.90;;;14.79;100.00;101306.66;4151970;28;20057;-80
2023/06/01 06:36:21;;;;;;;31.88;17.83;;;15.50;99.90;;;15.04;100.00;101341.97;4152013;28;20440;-80
2023/06/01 06:38:22;;;;;;;28.92;16.55;;;15.50;99.90;;;14.99;100.00;101332.88;4151859;28;20025;-80
2023/06/01 06:40:23;;;;;;;22.48;15.00;;;15.60;99.90;;;15.01;100.00;101334.34;4151910;28;20049;-80
2023/06/01 06:42:25;;;;;;;24.00;15.88;;;15.60;99.90;;;15.05;100.00;101333.03;4161979;28;20483;-80
2023/06/01 06:44:26;;;;;;;29.15;17.40;;;15.60;99.90;;;15.20;100.00;101347.22;4168293;28;20030;-80
2023/06/01 06:46:26;;;;;;;28.02;16.45;;;15.70;99.90;;;15.20;100.00;101347.22;4167122;28;20063;-80
2023/06/01 06:48:27;;;;;;;30.23;17.77;;;15.70;99.90;;;15.15;100.00;101333.63;4167292;28;20033;-80
2023/06/01 06:50:28;;;;;;;25.27;15.45;;;15.80;99.90;;;15.25;100.00;101305.03;4168186;28;20032;-80
2023/06/01 06:52:30;;;;;;;26.83;14.82;;;15.80;99.90;;;15.58;100.00;101331.50;4156052;28;20405;-79
2023/06/01 06:54:31;;;;;;;28.98;16.08;;;15.90;99.90;;;15.64;100.00;101336.13;4151912;28;20508;-79
2023/06/01 06:56:32;;;;;;;28.10;16.10;;;16.00;99.90;;;15.68;100.00;101337.44;4153305;28;20096;-80
2023/06/01 06:58:33;;;;;;;23.48;16.33;;;16.10;99.90;;;15.60;100.00;101326.81;4153747;28;20084;-80
2023/06/01 07:00:34;;;;;;;24.00;15.95;;;16.20;99.90;;;15.69;100.00;101347.06;4169983;28;20125;-80
2023/06/01 07:02:36;;;;;;;21.30;14.27;;;16.20;99.90;;;15.64;100.00;101333.47;4166285;28;20245;-80
2023/06/01 07:04:36;;;;;;;25.90;14.45;;;16.30;99.90;;;15.77;100.00;101347.03;4170977;28;20021;-80
2023/06/01 07:06:38;;;;;;;22.92;14.57;;;16.30;99.90;;;15.89;100.00;101346.44;4165558;28;20033;-80
2023/06/01 07:08:39;;;;;;;25.40;14.60;;;16.40;99.90;;;15.86;100.00;101343.31;4154771;28;20036;-78
2023/06/01 07:10:40;;;;;;;20.90;14.18;;;16.40;99.90;;;15.98;100.00;101342.72;4153041;28;20026;-77
2023/06/01 07:12:41;;;;;;;21.63;14.25;;;16.50;99.90;;;16.17;100.00;101361.91;4167730;28;20056;-77
2023/06/01 07:14:42;;;;;;;28.60;15.27;;;16.60;99.90;;;16.17;100.00;101365.38;4170817;28;20048;-77
2023/06/01 07:16:43;;;;;;;22.38;14.88;;;16.60;99.90;;;16.20;100.00;101357.06;4161855;28;20026;-78
2023/06/01 07:18:44;;;;;;;24.17;13.57;;;16.70;99.90;;;16.31;100.00;101361.94;4153377;28;20520;-80
2023/06/01 07:20:45;;;;;;;22.52;13.52;;;16.80;99.90;;;16.26;100.00;101340.38;4154346;28;20025;-80
2023/06/01 07:22:46;;;;;;;21.58;15.00;;;16.80;99.90;;;16.39;100.00;101361.06;4149938;28;20504;-80
2023/06/01 07:24:47;;;;;;;25.40;13.77;;;16.90;99.90;;;16.38;100.00;101349.59;4169838;28;20033;-80
2023/06/01 07:26:51;;;;;;;19.75;12.90;;;16.90;99.90;;;16.39;100.00;101329.13;4185921;28;20032;-80
2023/06/01 07:28:54;;;;;;;18.20;11.93;;;17.00;99.90;;;16.53;100.00;101347.81;4170603;28;20021;-80
2023/06/01 07:30:55;;;;;;;20.40;11.35;;;17.10;99.90;;;16.59;100.00;101354.28;4170653;28;20064;-80
2023/06/01 07:32:56;;;;;;;20.45;13.55;;;17.20;99.90;;;16.68;100.00;101347.88;4166087;28;20017;-77
2023/06/01 07:34:57;;;;;;;22.45;13.20;;;17.20;99.90;;;16.73;100.00;101349.97;4153658;28;20536;-77
2023/06/01 07:36:59;;;;;;;20.48;12.98;;;17.30;99.90;;;16.78;100.00;101339.63;4169969;28;20070;-79
2023/06/01 07:39:00;;;;;;;20.08;12.60;;;17.40;99.90;;;16.95;100.00;101370.41;4162563;28;20029;-79
2023/06/01 07:41:01;;;;;;;16.50;11.77;;;17.40;99.90;;;16.89;100.00;101337.34;4168710;28;20032;-81
2023/06/01 07:43:02;;;;;;;17.95;11.95;;;17.50;99.90;;;17.10;100.00;101372.09;4168564;28;20073;-79
2023/06/01 07:45:03;;;;;;;18.90;11.43;;;17.50;99.90;;;17.08;100.00;101344.75;4157194;28;20022;-78
2023/06/01 07:47:04;;;;;;;20.27;12.75;;;17.60;99.90;;;17.16;100.00;101351.88;4164870;28;20026;-80
2023/06/01 07:49:05;;;;;;;22.95;12.05;;;17.70;99.90;;;17.24;100.00;101345.59;4155344;28;20505;-79
2023/06/01 07:51:07;;;;;;;21.77;11.38;;;17.80;99.90;;;17.33;100.00;101340.00;4168431;28;20029;-80
2023/06/01 07:53:08;;;;;;;22.05;12.57;;;17.90;99.90;;;17.51;100.00;101368.94;4168195;28;20068;-81
2023/06/01 07:55:09;;;;;;;18.40;11.27;;;18.00;99.90;;;17.45;100.00;101333.16;4169433;28;20396;-80
2023/06/01 07:57:10;;;;;;;15.98;11.13;;;18.10;99.90;;;17.75;100.00;101362.50;4168604;28;20021;-79
2023/06/01 07:59:11;;;;;;;21.92;10.90;;;18.20;99.90;;;17.68;100.00;101338.41;4169559;28;20060;-78
2023/06/01 08:01:12;;;;;;;16.65;10.52;;;18.20;99.90;;;17.85;100.00;101349.69;4169483;28;20036;-78
2023/06/01 08:03:13;;;;;;;16.15;10.07;;;18.30;99.90;;;18.06;100.00;101368.41;4155636;28;20038;-82
2023/06/01 08:05:18;;;;;;;24.80;11.40;;;18.40;99.90;;;17.91;100.00;101346.25;4151793;28;20030;-81
2023/06/01 08:07:19;;;;;;;24.35;11.10;;;18.50;99.90;;;18.14;100.00;101363.75;4152925;28;20033;-81
2023/06/01 08:09:21;;;;;;;16.63;10.20;;;18.60;99.90;;;18.18;100.00;101366.88;4152561;28;20086;-81
2023/06/01 08:11:23;;;;;;;20.45;11.43;;;18.60;99.90;;;18.18;99.99;101346.34;4157980;28;20029;-81
2023/06/01 08:13:25;;;;;;;17.40;9.70;;;18.70;99.90;;;18.19;99.11;101352.50;4164836;28;20025;-77
2023/06/01 08:15:27;;;;;;;16.67;10.23;;;18.80;99.90;;;18.34;97.75;101350.59;4166119;28;20115;-77
2023/06/01 08:17:27;;;;;;;14.75;9.82;;;18.90;99.90;;;18.53;97.24;101349.13;4168251;28;20025;-78
2023/06/01 08:19:28;;;;;;;18.58;10.38;;;19.00;99.90;;;18.66;96.38;101355.44;4167093;28;20101;-78
2023/06/01 08:21:29;;;;;;;19.25;10.98;;;19.10;99.90;;;18.78;95.33;101364.56;4168088;28;20504;-78
2023/06/01 08:23:30;;;;;;;14.35;8.85;;;19.20;99.90;;;18.89;95.06;101357.03;4154165;28;20425;-78
2023/06/01 08:25:31;;;;;;;15.90;10.32;;;19.20;99.90;;;18.80;94.72;101345.66;4164480;28;20022;-78
2023/06/01 08:27:32;;;;;;;17.52;9.40;;;19.30;99.90;;;19.00;92.47;101351.13;4169530;28;20040;-78
2023/06/01 08:29:33;;;;;;;13.68;9.57;;;19.40;99.90;;;19.12;91.68;101342.38;4169114;28;20025;-80
2023/06/01 08:31:34;;;;;;;16.23;9.18;;;19.60;99.90;;;19.26;89.86;101362.00;4168057;28;20124;-82
2023/06/01 08:33:35;;;;;;;13.63;8.80;;;19.60;99.90;;;19.44;89.77;101362.34;4169048;28;20033;-82
2023/06/01 08:35:36;;;;;;;21.58;10.27;;;19.80;99.90;;;19.51;87.41;101360.50;4169173;28;20503;-80
2023/06/01 08:37:37;;;;;;;15.65;9.95;;;19.90;99.90;;;19.55;86.74;101345.69;4154245;28;20022;-80
2023/06/01 08:39:37;;;;;;;19.10;10.10;;;20.00;99.90;;;19.60;83.81;101351.28;4152574;28;20397;-82
2023/06/01 08:41:50;;;;;;;16.13;9.65;;;20.00;99.90;;;19.66;84.53;101355.81;4151819;28;20026;-81
2023/06/01 08:44:02;;;;;;;15.20;8.95;;;20.10;99.90;;;19.86;86.73;101346.00;4151756;28;20112;-81
2023/06/01 08:46:03;;;;;;;17.33;9.75;;;20.20;99.90;;;20.00;85.70;101346.88;4151143;28;20551;-82
2023/06/01 08:48:08;;;;;;;13.85;8.90;;;20.30;99.90;;;20.16;85.60;101369.78;4156551;28;20420;-81
2023/06/01 08:50:11;;;;;;;18.58;9.43;;;20.40;99.90;;;20.20;84.32;101344.22;4167907;28;20471;-81
2023/06/01 08:52:14;;;;;;;15.40;9.40;;;20.50;99.90;;;20.36;82.80;101357.25;4167560;28;20083;-80
2023/06/01 08:54:15;;;;;;;19.98;9.55;;;20.70;99.90;;;20.26;80.92;101352.31;4151672;28;20084;-80
2023/06/01 08:56:16;;;;;;;14.05;9.48;;;20.70;99.90;;;20.31;81.07;101351.66;4183449;28;20059;-80
2023/06/01 08:58:18;;;;;;;16.23;9.43;;;20.70;99.90;;;20.31;80.53;101347.16;4166755;28;20073;-80
2023/06/01 09:00:20;;;;;;;10.88;8.10;;;20.70;99.90;;;20.47;81.40;101350.44;4167920;28;20036;-80
2023/06/01 09:02:23;;;;;;;13.48;8.57;;;20.80;99.90;;;20.61;79.94;101352.13;4167185;28;20025;-80
2023/06/01 09:04:23;;;;;;;15.80;7.93;;;20.90;99.90;;;20.52;80.72;101345.31;4168705;28;20068;-80
2023/06/01 09:06:26;;;;;;;14.00;8.93;;;21.00;99.90;;;20.65;81.80;101346.13;4167474;28;20083;-80
2023/06/01 09:08:27;;;;;;;15.98;8.82;;;21.00;99.90;;;20.51;79.89;101331.09;4161008;28;20116;-80